createdAt,value
2022-10-06T00:03:39.880Z,43.6818
2022-10-06T00:08:41.523Z,44.23585
2022-10-06T00:13:43.084Z,43.52286
2022-10-06T00:18:44.719Z,43.49004
2022-10-06T00:23:46.310Z,43.85542
2022-10-06T00:28:48.008Z,44.03335
2022-10-06T00:33:49.763Z,44.62491
2022-10-06T00:38:51.368Z,43.94706
2022-10-06T00:43:52.984Z,46.04855
2022-10-06T00:48:54.636Z,46.45472
2022-10-06T00:53:56.247Z,47.03721
2022-10-06T00:58:57.858Z,48.19127
2022-10-06T01:03:59.364Z,46.72864
2022-10-06T01:09:00.966Z,47.99132
2022-10-06T01:14:02.541Z,49.56029
2022-10-06T01:19:04.099Z,51.32444
2022-10-06T01:24:05.736Z,49.58844
2022-10-06T01:29:07.369Z,50.36264
2022-10-06T01:34:09.009Z,50.74166
2022-10-06T01:39:10.626Z,51.25148
2022-10-06T01:44:12.305Z,50.28264
2022-10-06T01:49:13.906Z,50.38128
2022-10-06T01:54:15.538Z,51.53613
2022-10-06T01:59:17.140Z,51.11418
2022-10-06T02:04:18.797Z,51.12585
2022-10-06T02:09:20.435Z,52.72084
2022-10-06T02:14:22.193Z,52.13963
2022-10-06T02:19:23.837Z,53.4268
2022-10-06T02:24:25.450Z,52.42741
2022-10-06T02:29:27.082Z,51.01005
2022-10-06T02:34:28.709Z,51.96457
2022-10-06T02:39:30.330Z,53.49684
2022-10-06T02:44:31.994Z,54.24373
2022-10-06T02:49:33.571Z,52.27056
2022-10-06T02:54:35.173Z,53.06533
2022-10-06T02:59:36.765Z,55.61723
2022-10-06T03:04:38.356Z,54.98044
2022-10-06T03:09:40.036Z,54.66605
2022-10-06T03:14:41.636Z,58.38157
2022-10-06T03:19:43.240Z,58.75967
2022-10-06T03:24:44.850Z,55.87408
2022-10-06T03:29:46.426Z,56.31771
2022-10-06T03:34:48.035Z,59.85779
2022-10-06T03:39:49.754Z,56.4931
2022-10-06T03:44:51.356Z,55.83849
2022-10-06T03:49:52.948Z,57.66838
2022-10-06T03:54:54.518Z,58.11618
2022-10-06T03:59:56.115Z,57.64184
2022-10-06T04:04:57.722Z,57.65135
2022-10-06T04:09:59.299Z,57.12081
2022-10-06T04:15:01.000Z,55.27597
2022-10-06T04:20:02.686Z,59.37189
2022-10-06T04:25:04.338Z,58.144
2022-10-06T04:30:05.887Z,59.15484
2022-10-06T04:35:07.511Z,58.57382
2022-10-06T04:40:09.107Z,58.91196
2022-10-06T04:45:10.699Z,58.60196
2022-10-06T04:50:12.265Z,58.65253
2022-10-06T04:55:13.847Z,61.0703
2022-10-06T05:00:15.426Z,60.19873
2022-10-06T05:05:17.028Z,61.75963
2022-10-06T05:10:18.625Z,59.42969
2022-10-06T05:15:20.252Z,59.77157
2022-10-06T05:20:21.809Z,60.18628
2022-10-06T05:25:23.449Z,61.12462
2022-10-06T05:30:25.077Z,59.28834
2022-10-06T05:35:26.680Z,59.82611
2022-10-06T05:40:28.307Z,62.43372
2022-10-06T05:45:29.941Z,59.67488
2022-10-06T05:50:31.569Z,63.04262
2022-10-06T05:55:33.223Z,59.88678
2022-10-06T06:00:34.826Z,61.59928
2022-10-06T06:05:36.575Z,59.3402
2022-10-06T06:10:38.155Z,61.93304
2022-10-06T06:15:39.759Z,63.06353
2022-10-06T06:20:41.369Z,62.20386
2022-10-06T06:25:42.979Z,62.1514
2022-10-06T06:30:44.624Z,62.37055
2022-10-06T06:35:46.267Z,65.62903
2022-10-06T06:40:47.847Z,62.9486
2022-10-06T06:45:49.472Z,61.64888
2022-10-06T06:50:51.118Z,62.66097
2022-10-06T06:55:52.694Z,60.86417
2022-10-06T07:00:54.340Z,63.72132
2022-10-06T07:05:55.999Z,61.92259
2022-10-06T07:10:57.569Z,65.33586
2022-10-06T07:15:59.250Z,64.63842
2022-10-06T07:21:01.070Z,62.10791
2022-10-06T07:26:02.660Z,63.0537
2022-10-06T07:31:04.290Z,62.87267
2022-10-06T07:36:05.909Z,66.91898
2022-10-06T07:41:19.044Z,64.80509
2022-10-06T07:46:21.606Z,64.50723
2022-10-06T07:51:23.187Z,67.40008
2022-10-06T07:56:24.798Z,64.0773
2022-10-06T08:01:26.530Z,67.05725
2022-10-06T08:06:28.137Z,64.6002
2022-10-06T08:11:29.652Z,68.77788
2022-10-06T08:16:31.326Z,64.33015
2022-10-06T08:21:32.940Z,63.49162
2022-10-06T08:26:34.600Z,64.08435
2022-10-06T08:31:36.360Z,63.67573
2022-10-06T08:36:37.954Z,67.89741
2022-10-06T08:41:39.551Z,64.65374
2022-10-06T08:46:41.167Z,67.9005
2022-10-06T08:51:42.853Z,64.93769
2022-10-06T08:56:44.501Z,65.99357
2022-10-06T09:01:46.298Z,65.48256
2022-10-06T09:06:47.967Z,65.73173
2022-10-06T09:11:49.632Z,64.35617
2022-10-06T09:16:51.265Z,67.17348
2022-10-06T09:21:53.050Z,66.20958
2022-10-06T09:26:54.698Z,64.78655
2022-10-06T09:31:56.287Z,65.62054
2022-10-06T09:37:01.278Z,66.38154
2022-10-06T09:42:03.853Z,67.64383
2022-10-06T09:47:05.408Z,67.34691
2022-10-06T09:52:06.967Z,65.6579
2022-10-06T09:57:08.597Z,67.22779
2022-10-06T10:02:10.229Z,68.31326
2022-10-06T10:07:11.897Z,70.10491
2022-10-06T10:12:13.511Z,67.49224
2022-10-06T10:17:15.147Z,71.51583
2022-10-06T10:22:16.740Z,69.76353
2022-10-06T10:27:18.371Z,66.63558
2022-10-06T10:32:20.019Z,66.13165
2022-10-06T10:37:21.688Z,68.42948
2022-10-06T10:42:23.316Z,69.17969
2022-10-06T10:47:24.895Z,68.87422
2022-10-06T10:52:26.524Z,67.52309
2022-10-06T10:57:28.122Z,66.11396
2022-10-06T11:02:29.700Z,66.28934
2022-10-06T11:07:31.313Z,68.61402
2022-10-06T11:12:32.900Z,70.07342
2022-10-06T11:17:34.472Z,69.16666
2022-10-06T11:22:36.037Z,67.32883
2022-10-06T11:27:37.608Z,73.46557
2022-10-06T11:32:39.206Z,72.39705
2022-10-06T11:37:40.843Z,68.7896
2022-10-06T11:42:42.458Z,70.528
2022-10-06T11:47:44.082Z,70.70659
2022-10-06T11:52:45.690Z,66.0117
2022-10-06T11:57:47.277Z,66.88771
2022-10-06T12:02:49.022Z,66.78161
2022-10-06T12:07:50.711Z,64.42709
2022-10-06T12:13:06.295Z,66.08726
2022-10-06T12:18:09.002Z,67.31397
2022-10-06T12:23:10.573Z,66.67517
2022-10-06T12:28:12.220Z,66.49244
2022-10-06T12:33:13.828Z,69.07057
2022-10-06T12:38:15.389Z,68.04306
2022-10-06T12:43:17.014Z,67.87936
2022-10-06T12:48:18.877Z,68.26893
2022-10-06T12:53:20.611Z,69.98852
2022-10-06T12:58:22.227Z,67.21574
2022-10-06T13:03:24.169Z,66.90371
2022-10-06T13:08:25.817Z,70.92922
2022-10-06T13:13:27.417Z,69.63176
2022-10-06T13:18:29.032Z,71.21833
2022-10-06T13:23:30.685Z,67.52924
2022-10-06T13:28:32.387Z,68.7171
2022-10-06T13:33:34.049Z,70.61743
2022-10-06T13:38:35.661Z,68.37254
2022-10-06T13:43:39.625Z,68.62106
2022-10-06T13:48:41.516Z,70.39281
2022-10-06T13:53:43.129Z,68.68081
2022-10-06T13:58:44.731Z,70.71341
2022-10-06T14:03:46.431Z,70.39923
2022-10-06T14:08:48.048Z,68.35144
2022-10-06T14:13:49.630Z,71.25408
2022-10-06T14:18:51.288Z,67.66535
2022-10-06T14:23:52.956Z,72.63461
2022-10-06T14:28:54.556Z,73.33319
2022-10-06T14:33:56.142Z,70.32147
2022-10-06T14:38:57.714Z,71.24069
2022-10-06T14:43:59.294Z,70.90442
2022-10-06T14:49:00.892Z,67.85585
2022-10-06T14:54:02.490Z,72.10402
2022-10-06T14:59:04.127Z,71.24918
2022-10-06T15:04:05.748Z,68.44114
2022-10-06T15:09:07.360Z,68.93852
2022-10-06T15:14:09.104Z,66.89945
2022-10-06T15:19:10.782Z,69.40136
2022-10-06T15:24:12.358Z,68.81047
2022-10-06T15:29:13.973Z,65.92888
2022-10-06T15:34:15.569Z,65.11714
2022-10-06T15:39:17.136Z,62.59787
2022-10-06T15:44:18.699Z,60.64607
2022-10-06T15:49:20.326Z,60.42528
2022-10-06T15:54:21.967Z,60.10049
2022-10-06T15:59:23.543Z,60.76446
2022-10-06T16:04:25.107Z,63.28251
2022-10-06T16:09:26.703Z,62.92499
2022-10-06T16:14:28.297Z,61.41813
2022-10-06T16:19:29.942Z,63.60469
2022-10-06T16:24:31.522Z,60.62697
2022-10-06T16:29:33.129Z,56.23511
2022-10-06T16:34:34.752Z,54.89128
2022-10-06T16:39:36.328Z,54.98501
2022-10-06T16:44:37.931Z,56.87588
2022-10-06T16:49:39.502Z,53.55802
2022-10-06T16:54:41.106Z,50.65137
2022-10-06T16:59:46.599Z,52.64694
2022-10-06T17:04:48.630Z,52.15578
2022-10-06T17:10:15.292Z,49.91491
2022-10-06T17:15:21.152Z,46.76561
2022-10-06T17:20:22.763Z,46.49775
2022-10-06T17:25:24.442Z,46.32707
2022-10-06T17:30:26.071Z,44.51458
2022-10-06T17:35:27.676Z,45.47598
2022-10-06T17:40:29.270Z,47.32145
2022-10-06T17:45:30.908Z,45.6377
2022-10-06T17:50:32.562Z,46.13198
2022-10-06T17:55:34.148Z,44.1963
2022-10-06T18:00:35.763Z,43.8951
2022-10-06T18:05:37.370Z,47.2882
2022-10-06T18:10:38.943Z,42.90679
2022-10-06T18:15:40.526Z,44.84658
2022-10-06T18:20:42.108Z,42.64896
2022-10-06T18:25:43.702Z,43.09664
2022-10-06T18:30:45.276Z,40.34539
2022-10-06T18:36:14.369Z,40.51872
2022-10-06T18:41:16.784Z,37.85229
2022-10-06T18:46:18.520Z,40.2877
2022-10-06T18:51:20.156Z,41.95964
2022-10-06T18:56:21.812Z,40.37431
2022-10-06T19:01:23.517Z,40.92247
2022-10-06T19:06:25.177Z,40.05687
2022-10-06T19:11:26.798Z,39.11947
2022-10-06T19:16:28.470Z,38.20993
2022-10-06T19:21:30.123Z,37.97689
2022-10-06T19:26:31.769Z,36.75913
2022-10-06T19:31:33.358Z,39.47378
2022-10-06T19:36:34.980Z,38.20018
2022-10-06T19:41:36.607Z,36.77973
2022-10-06T19:46:38.233Z,38.03916
2022-10-06T19:51:39.838Z,35.60709
2022-10-06T19:56:41.424Z,34.8202
2022-10-06T20:01:43.050Z,33.74038
2022-10-06T20:06:44.676Z,33.77305
2022-10-06T20:11:46.308Z,32.58912
2022-10-06T20:16:47.964Z,33.43822
2022-10-06T20:21:49.593Z,32.74869
2022-10-06T20:26:51.259Z,32.80882
2022-10-06T20:31:52.908Z,32.80229
2022-10-06T20:36:56.205Z,32.97216
2022-10-06T20:41:57.927Z,34.46724
2022-10-06T20:46:59.491Z,35.67149
2022-10-06T20:52:01.077Z,34.15465
2022-10-06T20:57:02.781Z,35.14924
2022-10-06T21:02:04.347Z,35.92445
2022-10-06T21:07:06.179Z,36.33639
2022-10-06T21:12:07.791Z,36.12142
2022-10-06T21:17:09.412Z,33.92461
2022-10-06T21:22:10.984Z,34.30803
2022-10-06T21:27:12.591Z,34.48336
2022-10-06T21:32:14.194Z,33.90466
2022-10-06T21:37:15.798Z,33.69502
2022-10-06T21:42:17.407Z,35.46647
2022-10-06T21:47:19.091Z,34.31658
2022-10-06T21:52:20.710Z,34.11194
2022-10-06T21:57:22.296Z,34.71972
2022-10-06T22:02:23.986Z,34.79025
2022-10-06T22:07:25.690Z,33.96307
2022-10-06T22:12:27.275Z,32.67255
2022-10-06T22:17:28.872Z,34.06318
2022-10-06T22:22:30.515Z,31.96315
2022-10-06T22:27:32.076Z,35.6318
2022-10-06T22:32:33.683Z,33.59179
2022-10-06T22:37:35.294Z,33.16414
2022-10-06T22:42:36.891Z,35.70287
2022-10-06T22:47:38.446Z,34.24243
2022-10-06T22:52:40.198Z,35.39847
2022-10-06T22:57:42.176Z,35.16292
2022-10-06T23:02:44.031Z,34.25509
2022-10-06T23:07:46.057Z,35.36513
2022-10-06T23:12:47.984Z,33.99195
2022-10-06T23:17:49.553Z,33.42115
2022-10-06T23:22:51.197Z,32.19226
2022-10-06T23:27:52.785Z,33.57282
2022-10-06T23:32:54.368Z,32.81282
2022-10-06T23:37:56.038Z,36.26246
2022-10-06T23:42:57.748Z,35.74487
2022-10-06T23:47:59.353Z,38.12763
2022-10-06T23:53:00.925Z,35.07521
2022-10-06T23:58:02.559Z,36.53789
